sensor_id;sensor_type;location;lat;lon;timestamp;P1;durP1;ratioP1;P2;durP2;ratioP2
28007;SDS011;15333;50.010;20.020;2023-03-31T00:02:22;22.30;;;12.35;;
28007;SDS011;15333;50.010;20.020;2023-03-31T00:05:24;21.83;;;13.25;;
28007;SDS011;15333;50.010;20.020;2023-03-31T00:08:26;22.67;;;12.82;;
28007;SDS011;15333;50.010;20.020;2023-03-31T00:11:35;22.35;;;12.75;;
28007;SDS011;15333;50.010;20.020;2023-03-31T00:14:37;20.17;;;13.23;;
28007;SDS011;15333;50.010;20.020;2023-03-31T00:17:38;22.92;;;13.55;;
28007;SDS011;15333;50.010;20.020;2023-03-31T00:20:39;27.85;;;13.98;;
28007;SDS011;15333;50.010;20.020;2023-03-31T00:23:42;25.67;;;14.82;;
28007;SDS011;15333;50.010;20.020;2023-03-31T00:26:43;22.33;;;14.13;;
28007;SDS011;15333;50.010;20.020;2023-03-31T00:29:44;23.55;;;14.70;;
28007;SDS011;15333;50.010;20.020;2023-03-31T00:32:46;22.27;;;15.23;;
28007;SDS011;15333;50.010;20.020;2023-03-31T00:35:50;26.98;;;15.23;;
28007;SDS011;15333;50.010;20.020;2023-03-31T00:38:52;22.98;;;15.10;;
28007;SDS011;15333;50.010;20.020;2023-03-31T00:41:54;24.73;;;16.10;;
28007;SDS011;15333;50.010;20.020;2023-03-31T00:48:15;28.70;;;16.98;;
28007;SDS011;15333;50.010;20.020;2023-03-31T00:51:19;27.85;;;16.33;;
28007;SDS011;15333;50.010;20.020;2023-03-31T00:54:23;28.67;;;16.98;;
28007;SDS011;15333;50.010;20.020;2023-03-31T00:57:26;28.85;;;17.60;;
28007;SDS011;15333;50.010;20.020;2023-03-31T01:00:32;28.60;;;16.90;;
28007;SDS011;15333;50.010;20.020;2023-03-31T01:03:32;27.33;;;16.30;;
28007;SDS011;15333;50.010;20.020;2023-03-31T01:06:35;30.70;;;17.58;;
28007;SDS011;15333;50.010;20.020;2023-03-31T01:09:48;27.90;;;16.75;;
28007;SDS011;15333;50.010;20.020;2023-03-31T01:12:54;25.48;;;15.38;;
28007;SDS011;15333;50.010;20.020;2023-03-31T01:15:55;28.55;;;17.23;;
28007;SDS011;15333;50.010;20.020;2023-03-31T01:18:56;23.35;;;15.95;;
28007;SDS011;15333;50.010;20.020;2023-03-31T01:22:03;25.17;;;15.23;;
28007;SDS011;15333;50.010;20.020;2023-03-31T01:25:26;22.30;;;14.15;;
28007;SDS011;15333;50.010;20.020;2023-03-31T01:32:07;19.13;;;13.65;;
28007;SDS011;15333;50.010;20.020;2023-03-31T01:42:19;23.30;;;13.27;;
28007;SDS011;15333;50.010;20.020;2023-03-31T01:45:42;21.90;;;13.88;;
28007;SDS011;15333;50.010;20.020;2023-03-31T01:55:05;23.73;;;13.63;;
28007;SDS011;15333;50.010;20.020;2023-03-31T02:01:36;23.05;;;13.35;;
28007;SDS011;15333;50.010;20.020;2023-03-31T02:05:02;21.30;;;13.63;;
28007;SDS011;15333;50.010;20.020;2023-03-31T02:08:11;19.92;;;12.50;;
28007;SDS011;15333;50.010;20.020;2023-03-31T02:11:16;21.90;;;13.23;;
28007;SDS011;15333;50.010;20.020;2023-03-31T02:14:18;20.63;;;12.52;;
28007;SDS011;15333;50.010;20.020;2023-03-31T02:17:23;19.35;;;12.25;;
28007;SDS011;15333;50.010;20.020;2023-03-31T02:20:30;20.35;;;13.00;;
28007;SDS011;15333;50.010;20.020;2023-03-31T02:23:33;17.70;;;11.95;;
28007;SDS011;15333;50.010;20.020;2023-03-31T02:26:41;24.33;;;13.60;;
28007;SDS011;15333;50.010;20.020;2023-03-31T02:29:55;16.60;;;12.45;;
28007;SDS011;15333;50.010;20.020;2023-03-31T02:32:56;19.85;;;11.90;;
28007;SDS011;15333;50.010;20.020;2023-03-31T02:35:58;15.95;;;10.65;;
28007;SDS011;15333;50.010;20.020;2023-03-31T02:39:09;17.98;;;10.98;;
28007;SDS011;15333;50.010;20.020;2023-03-31T02:42:15;15.00;;;10.07;;
28007;SDS011;15333;50.010;20.020;2023-03-31T02:48:50;17.58;;;9.65;;
28007;SDS011;15333;50.010;20.020;2023-03-31T02:52:08;13.63;;;9.27;;
28007;SDS011;15333;50.010;20.020;2023-03-31T03:05:31;11.50;;;8.57;;
28007;SDS011;15333;50.010;20.020;2023-03-31T03:12:33;11.20;;;7.70;;
28007;SDS011;15333;50.010;20.020;2023-03-31T03:15:46;16.45;;;7.20;;
28007;SDS011;15333;50.010;20.020;2023-03-31T03:19:02;12.65;;;7.00;;
28007;SDS011;15333;50.010;20.020;2023-03-31T03:22:05;11.95;;;7.05;;
28007;SDS011;15333;50.010;20.020;2023-03-31T03:25:07;13.45;;;7.55;;
28007;SDS011;15333;50.010;20.020;2023-03-31T03:28:12;11.98;;;6.85;;
28007;SDS011;15333;50.010;20.020;2023-03-31T03:31:13;12.63;;;7.03;;
28007;SDS011;15333;50.010;20.020;2023-03-31T03:34:15;10.50;;;6.80;;
28007;SDS011;15333;50.010;20.020;2023-03-31T03:37:17;11.07;;;6.68;;
28007;SDS011;15333;50.010;20.020;2023-03-31T03:40:18;10.50;;;6.25;;
28007;SDS011;15333;50.010;20.020;2023-03-31T03:43:19;10.73;;;6.50;;
28007;SDS011;15333;50.010;20.020;2023-03-31T03:46:20;15.45;;;6.70;;
28007;SDS011;15333;50.010;20.020;2023-03-31T03:49:21;11.88;;;6.82;;
28007;SDS011;15333;50.010;20.020;2023-03-31T03:52:22;8.15;;;6.28;;
28007;SDS011;15333;50.010;20.020;2023-03-31T03:55:23;10.73;;;6.25;;
28007;SDS011;15333;50.010;20.020;2023-03-31T03:58:25;11.40;;;6.38;;
28007;SDS011;15333;50.010;20.020;2023-03-31T04:01:26;8.65;;;6.32;;
28007;SDS011;15333;50.010;20.020;2023-03-31T04:04:27;9.05;;;6.53;;
28007;SDS011;15333;50.010;20.020;2023-03-31T04:07:28;8.55;;;6.20;;
28007;SDS011;15333;50.010;20.020;2023-03-31T04:10:29;15.50;;;6.68;;
28007;SDS011;15333;50.010;20.020;2023-03-31T04:13:30;13.02;;;7.03;;
28007;SDS011;15333;50.010;20.020;2023-03-31T04:16:31;13.10;;;6.75;;
28007;SDS011;15333;50.010;20.020;2023-03-31T04:19:33;16.73;;;7.00;;
28007;SDS011;15333;50.010;20.020;2023-03-31T04:22:34;10.73;;;6.68;;
28007;SDS011;15333;50.010;20.020;2023-03-31T04:25:39;12.38;;;7.07;;
28007;SDS011;15333;50.010;20.020;2023-03-31T04:28:45;11.88;;;7.20;;
28007;SDS011;15333;50.010;20.020;2023-03-31T04:31:50;15.38;;;7.47;;
28007;SDS011;15333;50.010;20.020;2023-03-31T04:34:52;13.98;;;7.10;;
28007;SDS011;15333;50.010;20.020;2023-03-31T04:38:02;12.82;;;6.18;;
28007;SDS011;15333;50.010;20.020;2023-03-31T04:41:03;12.35;;;6.65;;
28007;SDS011;15333;50.010;20.020;2023-03-31T04:44:03;11.20;;;6.72;;
28007;SDS011;15333;50.010;20.020;2023-03-31T04:47:05;17.00;;;7.40;;
28007;SDS011;15333;50.010;20.020;2023-03-31T04:50:06;14.55;;;7.35;;
28007;SDS011;15333;50.010;20.020;2023-03-31T04:53:07;13.20;;;8.00;;
28007;SDS011;15333;50.010;20.020;2023-03-31T04:56:08;11.77;;;7.65;;
28007;SDS011;15333;50.010;20.020;2023-03-31T04:59:10;12.13;;;7.40;;
28007;SDS011;15333;50.010;20.020;2023-03-31T05:02:11;13.20;;;8.13;;
28007;SDS011;15333;50.010;20.020;2023-03-31T05:05:12;14.52;;;8.93;;
28007;SDS011;15333;50.010;20.020;2023-03-31T05:08:12;11.20;;;8.00;;
28007;SDS011;15333;50.010;20.020;2023-03-31T05:11:14;15.73;;;8.73;;
28007;SDS011;15333;50.010;20.020;2023-03-31T05:14:14;19.23;;;8.40;;
28007;SDS011;15333;50.010;20.020;2023-03-31T05:17:15;17.20;;;8.00;;
28007;SDS011;15333;50.010;20.020;2023-03-31T05:20:17;16.88;;;8.20;;
28007;SDS011;15333;50.010;20.020;2023-03-31T05:23:19;14.68;;;8.38;;
28007;SDS011;15333;50.010;20.020;2023-03-31T05:26:20;15.88;;;7.80;;
28007;SDS011;15333;50.010;20.020;2023-03-31T05:29:24;15.77;;;7.93;;
28007;SDS011;15333;50.010;20.020;2023-03-31T05:32:25;27.25;;;8.15;;
28007;SDS011;15333;50.010;20.020;2023-03-31T05:35:26;16.08;;;7.63;;
28007;SDS011;15333;50.010;20.020;2023-03-31T05:38:29;11.93;;;7.20;;
28007;SDS011;15333;50.010;20.020;2023-03-31T05:41:31;10.20;;;6.88;;
28007;SDS011;15333;50.010;20.020;2023-03-31T05:44:31;13.60;;;7.13;;
28007;SDS011;15333;50.010;20.020;2023-03-31T05:47:32;18.45;;;8.00;;
28007;SDS011;15333;50.010;20.020;2023-03-31T05:50:33;16.25;;;8.32;;
28007;SDS011;15333;50.010;20.020;2023-03-31T05:53:35;13.00;;;7.70;;
28007;SDS011;15333;50.010;20.020;2023-03-31T05:56:35;11.88;;;7.53;;
28007;SDS011;15333;50.010;20.020;2023-03-31T05:59:37;16.13;;;7.95;;
28007;SDS011;15333;50.010;20.020;2023-03-31T06:02:40;17.15;;;8.48;;
28007;SDS011;15333;50.010;20.020;2023-03-31T06:05:46;12.07;;;8.57;;
28007;SDS011;15333;50.010;20.020;2023-03-31T06:08:47;19.02;;;9.65;;
28007;SDS011;15333;50.010;20.020;2023-03-31T06:11:49;15.23;;;9.05;;
28007;SDS011;15333;50.010;20.020;2023-03-31T06:14:49;17.88;;;9.90;;
28007;SDS011;15333;50.010;20.020;2023-03-31T06:17:50;13.95;;;8.18;;
28007;SDS011;15333;50.010;20.020;2023-03-31T06:20:51;17.45;;;8.20;;
28007;SDS011;15333;50.010;20.020;2023-03-31T06:23:52;14.02;;;7.57;;
28007;SDS011;15333;50.010;20.020;2023-03-31T06:26:55;14.68;;;6.68;;
28007;SDS011;15333;50.010;20.020;2023-03-31T06:29:56;10.88;;;6.60;;
28007;SDS011;15333;50.010;20.020;2023-03-31T06:32:57;14.48;;;6.20;;
28007;SDS011;15333;50.010;20.020;2023-03-31T06:35:58;10.25;;;6.20;;
28007;SDS011;15333;50.010;20.020;2023-03-31T06:39:01;8.88;;;5.80;;
28007;SDS011;15333;50.010;20.020;2023-03-31T06:42:02;10.45;;;5.90;;
28007;SDS011;15333;50.010;20.020;2023-03-31T06:45:03;11.25;;;5.60;;
28007;SDS011;15333;50.010;20.020;2023-03-31T06:48:04;9.05;;;5.25;;
28007;SDS011;15333;50.010;20.020;2023-03-31T06:51:06;10.02;;;4.97;;
28007;SDS011;15333;50.010;20.020;2023-03-31T06:54:07;9.95;;;4.47;;
28007;SDS011;15333;50.010;20.020;2023-03-31T06:57:08;10.07;;;5.72;;
28007;SDS011;15333;50.010;20.020;2023-03-31T07:00:10;6.90;;;4.75;;
28007;SDS011;15333;50.010;20.020;2023-03-31T07:03:11;8.95;;;5.47;;
28007;SDS011;15333;50.010;20.020;2023-03-31T07:06:13;9.02;;;4.65;;
28007;SDS011;15333;50.010;20.020;2023-03-31T07:09:14;9.00;;;5.07;;
28007;SDS011;15333;50.010;20.020;2023-03-31T07:12:15;10.00;;;4.95;;
28007;SDS011;15333;50.010;20.020;2023-03-31T07:15:16;9.63;;;4.50;;
28007;SDS011;15333;50.010;20.020;2023-03-31T07:18:17;11.75;;;5.45;;
28007;SDS011;15333;50.010;20.020;2023-03-31T07:21:18;10.50;;;5.20;;
28007;SDS011;15333;50.010;20.020;2023-03-31T07:24:20;11.38;;;4.95;;
28007;SDS011;15333;50.010;20.020;2023-03-31T07:27:20;10.82;;;4.97;;
28007;SDS011;15333;50.010;20.020;2023-03-31T07:30:21;13.32;;;5.05;;
28007;SDS011;15333;50.010;20.020;2023-03-31T07:33:23;9.55;;;4.57;;
28007;SDS011;15333;50.010;20.020;2023-03-31T07:36:25;7.97;;;4.32;;
28007;SDS011;15333;50.010;20.020;2023-03-31T07:39:25;7.25;;;3.67;;
28007;SDS011;15333;50.010;20.020;2023-03-31T07:42:26;7.85;;;4.55;;
28007;SDS011;15333;50.010;20.020;2023-03-31T07:45:27;7.20;;;3.90;;
28007;SDS011;15333;50.010;20.020;2023-03-31T07:48:28;9.23;;;3.90;;
28007;SDS011;15333;50.010;20.020;2023-03-31T07:51:29;6.00;;;4.05;;
28007;SDS011;15333;50.010;20.020;2023-03-31T07:54:30;7.95;;;3.75;;
28007;SDS011;15333;50.010;20.020;2023-03-31T07:57:31;6.82;;;3.53;;
28007;SDS011;15333;50.010;20.020;2023-03-31T08:00:32;6.72;;;3.85;;
28007;SDS011;15333;50.010;20.020;2023-03-31T08:03:33;6.68;;;3.50;;
28007;SDS011;15333;50.010;20.020;2023-03-31T08:06:34;9.13;;;4.32;;
28007;SDS011;15333;50.010;20.020;2023-03-31T08:09:36;7.85;;;4.20;;
28007;SDS011;15333;50.010;20.020;2023-03-31T08:12:37;8.23;;;4.55;;
28007;SDS011;15333;50.010;20.020;2023-03-31T08:15:38;10.13;;;4.72;;
28007;SDS011;15333;50.010;20.020;2023-03-31T08:18:39;7.78;;;4.22;;
28007;SDS011;15333;50.010;20.020;2023-03-31T08:21:40;9.07;;;3.50;;
28007;SDS011;15333;50.010;20.020;2023-03-31T08:24:41;7.47;;;3.95;;
28007;SDS011;15333;50.010;20.020;2023-03-31T08:27:41;8.52;;;4.07;;
28007;SDS011;15333;50.010;20.020;2023-03-31T08:30:42;10.18;;;3.60;;
28007;SDS011;15333;50.010;20.020;2023-03-31T08:33:44;10.90;;;3.92;;
28007;SDS011;15333;50.010;20.020;2023-03-31T08:36:45;6.78;;;3.03;;
28007;SDS011;15333;50.010;20.020;2023-03-31T08:39:46;5.45;;;2.65;;
28007;SDS011;15333;50.010;20.020;2023-03-31T08:42:52;5.90;;;3.00;;
28007;SDS011;15333;50.010;20.020;2023-03-31T08:45:55;5.30;;;2.90;;
28007;SDS011;15333;50.010;20.020;2023-03-31T08:48:57;4.57;;;2.25;;
28007;SDS011;15333;50.010;20.020;2023-03-31T08:52:00;7.13;;;2.40;;
28007;SDS011;15333;50.010;20.020;2023-03-31T08:55:06;7.32;;;2.70;;
28007;SDS011;15333;50.010;20.020;2023-03-31T08:58:14;7.07;;;2.10;;
28007;SDS011;15333;50.010;20.020;2023-03-31T09:01:32;5.22;;;2.90;;
28007;SDS011;15333;50.010;20.020;2023-03-31T09:08:24;3.92;;;2.67;;
28007;SDS011;15333;50.010;20.020;2023-03-31T09:11:46;8.25;;;2.85;;
28007;SDS011;15333;50.010;20.020;2023-03-31T09:18:16;6.45;;;2.78;;
28007;SDS011;15333;50.010;20.020;2023-03-31T09:21:26;5.97;;;2.95;;
28007;SDS011;15333;50.010;20.020;2023-03-31T09:24:33;5.75;;;2.85;;
28007;SDS011;15333;50.010;20.020;2023-03-31T09:27:47;6.72;;;2.67;;
28007;SDS011;15333;50.010;20.020;2023-03-31T09:30:50;6.63;;;2.83;;
28007;SDS011;15333;50.010;20.020;2023-03-31T09:33:52;6.60;;;2.70;;
28007;SDS011;15333;50.010;20.020;2023-03-31T09:36:58;5.53;;;2.50;;
28007;SDS011;15333;50.010;20.020;2023-03-31T09:39:59;5.95;;;2.20;;
28007;SDS011;15333;50.010;20.020;2023-03-31T09:43:09;8.07;;;2.35;;
28007;SDS011;15333;50.010;20.020;2023-03-31T09:46:34;7.22;;;2.25;;
28007;SDS011;15333;50.010;20.020;2023-03-31T09:49:36;4.85;;;2.15;;
28007;SDS011;15333;50.010;20.020;2023-03-31T09:52:39;6.25;;;2.70;;
28007;SDS011;15333;50.010;20.020;2023-03-31T09:55:43;4.13;;;2.05;;
28007;SDS011;15333;50.010;20.020;2023-03-31T09:58:49;8.27;;;2.33;;
28007;SDS011;15333;50.010;20.020;2023-03-31T10:01:50;4.57;;;2.15;;
28007;SDS011;15333;50.010;20.020;2023-03-31T10:04:53;4.50;;;2.13;;
28007;SDS011;15333;50.010;20.020;2023-03-31T10:11:19;5.03;;;1.95;;
28007;SDS011;15333;50.010;20.020;2023-03-31T10:14:25;4.63;;;2.03;;
28007;SDS011;15333;50.010;20.020;2023-03-31T10:17:33;5.75;;;2.08;;
28007;SDS011;15333;50.010;20.020;2023-03-31T10:20:50;5.43;;;1.83;;
28007;SDS011;15333;50.010;20.020;2023-03-31T10:23:52;7.15;;;1.80;;
28007;SDS011;15333;50.010;20.020;2023-03-31T10:26:54;5.45;;;2.38;;
28007;SDS011;15333;50.010;20.020;2023-03-31T10:29:57;4.90;;;2.20;;
28007;SDS011;15333;50.010;20.020;2023-03-31T10:33:04;5.82;;;2.53;;
28007;SDS011;15333;50.010;20.020;2023-03-31T10:36:20;3.25;;;1.52;;
28007;SDS011;15333;50.010;20.020;2023-03-31T10:39:24;5.43;;;1.90;;
28007;SDS011;15333;50.010;20.020;2023-03-31T10:42:31;4.50;;;1.92;;
28007;SDS011;15333;50.010;20.020;2023-03-31T10:45:36;5.32;;;1.80;;
28007;SDS011;15333;50.010;20.020;2023-03-31T10:48:41;5.70;;;1.90;;
28007;SDS011;15333;50.010;20.020;2023-03-31T10:51:53;4.75;;;1.73;;
28007;SDS011;15333;50.010;20.020;2023-03-31T10:54:58;5.10;;;1.70;;
28007;SDS011;15333;50.010;20.020;2023-03-31T10:58:04;7.90;;;1.92;;
28007;SDS011;15333;50.010;20.020;2023-03-31T11:01:26;6.72;;;1.73;;
28007;SDS011;15333;50.010;20.020;2023-03-31T11:04:43;3.58;;;1.80;;
28007;SDS011;15333;50.010;20.020;2023-03-31T11:11:21;5.85;;;2.05;;
28007;SDS011;15333;50.010;20.020;2023-03-31T11:14:35;8.05;;;1.80;;
28007;SDS011;15333;50.010;20.020;2023-03-31T11:24:25;6.57;;;2.10;;
28007;SDS011;15333;50.010;20.020;2023-03-31T11:34:36;4.97;;;2.25;;
28007;SDS011;15333;50.010;20.020;2023-03-31T11:41:22;4.57;;;1.90;;
28007;SDS011;15333;50.010;20.020;2023-03-31T11:44:55;6.55;;;2.13;;
28007;SDS011;15333;50.010;20.020;2023-03-31T11:47:59;4.22;;;2.10;;
28007;SDS011;15333;50.010;20.020;2023-03-31T11:51:05;6.32;;;2.15;;
28007;SDS011;15333;50.010;20.020;2023-03-31T12:00:51;8.88;;;2.40;;
28007;SDS011;15333;50.010;20.020;2023-03-31T12:04:01;4.85;;;2.55;;
28007;SDS011;15333;50.010;20.020;2023-03-31T12:07:28;6.13;;;2.65;;
28007;SDS011;15333;50.010;20.020;2023-03-31T12:10:42;3.45;;;1.88;;
28007;SDS011;15333;50.010;20.020;2023-03-31T12:17:04;5.40;;;2.13;;
28007;SDS011;15333;50.010;20.020;2023-03-31T12:20:24;4.72;;;2.70;;
28007;SDS011;15333;50.010;20.020;2023-03-31T12:23:34;5.38;;;2.25;;
28007;SDS011;15333;50.010;20.020;2023-03-31T12:33:31;7.82;;;2.97;;
28007;SDS011;15333;50.010;20.020;2023-03-31T12:53:30;6.78;;;2.70;;
28007;SDS011;15333;50.010;20.020;2023-03-31T13:12:39;9.55;;;2.67;;
28007;SDS011;15333;50.010;20.020;2023-03-31T13:15:48;17.23;;;8.52;;
28007;SDS011;15333;50.010;20.020;2023-03-31T13:18:52;3.53;;;1.80;;
28007;SDS011;15333;50.010;20.020;2023-03-31T13:21:54;7.38;;;2.35;;
28007;SDS011;15333;50.010;20.020;2023-03-31T13:28:33;6.25;;;1.80;;
28007;SDS011;15333;50.010;20.020;2023-03-31T13:35:19;5.53;;;1.90;;
28007;SDS011;15333;50.010;20.020;2023-03-31T13:55:05;6.93;;;2.00;;
28007;SDS011;15333;50.010;20.020;2023-03-31T14:11:37;5.25;;;1.40;;
28007;SDS011;15333;50.010;20.020;2023-03-31T14:14:39;7.32;;;1.98;;
28007;SDS011;15333;50.010;20.020;2023-03-31T14:17:40;5.93;;;1.75;;
28007;SDS011;15333;50.010;20.020;2023-03-31T14:20:45;3.67;;;1.60;;
28007;SDS011;15333;50.010;20.020;2023-03-31T14:24:17;3.65;;;1.42;;
28007;SDS011;15333;50.010;20.020;2023-03-31T14:34:46;6.45;;;1.40;;
28007;SDS011;15333;50.010;20.020;2023-03-31T14:37:54;4.47;;;1.50;;
28007;SDS011;15333;50.010;20.020;2023-03-31T14:40:56;4.78;;;1.10;;
28007;SDS011;15333;50.010;20.020;2023-03-31T14:44:00;3.70;;;1.48;;
28007;SDS011;15333;50.010;20.020;2023-03-31T14:47:04;5.07;;;1.27;;
28007;SDS011;15333;50.010;20.020;2023-03-31T14:50:16;5.95;;;1.70;;
28007;SDS011;15333;50.010;20.020;2023-03-31T14:53:21;6.25;;;1.90;;
28007;SDS011;15333;50.010;20.020;2023-03-31T14:56:33;7.32;;;2.03;;
28007;SDS011;15333;50.010;20.020;2023-03-31T14:59:37;4.43;;;1.80;;
28007;SDS011;15333;50.010;20.020;2023-03-31T15:02:42;3.58;;;1.40;;
28007;SDS011;15333;50.010;20.020;2023-03-31T15:05:44;6.05;;;2.00;;
28007;SDS011;15333;50.010;20.020;2023-03-31T15:08:46;6.13;;;2.10;;
28007;SDS011;15333;50.010;20.020;2023-03-31T15:11:47;2.65;;;1.35;;
28007;SDS011;15333;50.010;20.020;2023-03-31T15:14:57;4.88;;;1.50;;
28007;SDS011;15333;50.010;20.020;2023-03-31T15:18:01;4.60;;;1.75;;
28007;SDS011;15333;50.010;20.020;2023-03-31T15:21:03;6.85;;;2.13;;
28007;SDS011;15333;50.010;20.020;2023-03-31T15:24:04;4.13;;;2.05;;
28007;SDS011;15333;50.010;20.020;2023-03-31T15:27:07;2.75;;;1.40;;
28007;SDS011;15333;50.010;20.020;2023-03-31T15:30:22;5.03;;;2.20;;
28007;SDS011;15333;50.010;20.020;2023-03-31T15:33:27;7.82;;;2.38;;
28007;SDS011;15333;50.010;20.020;2023-03-31T15:39:37;8.27;;;2.08;;
28007;SDS011;15333;50.010;20.020;2023-03-31T15:42:43;5.65;;;2.40;;
28007;SDS011;15333;50.010;20.020;2023-03-31T15:45:49;6.45;;;2.40;;
28007;SDS011;15333;50.010;20.020;2023-03-31T15:48:52;6.50;;;2.50;;
28007;SDS011;15333;50.010;20.020;2023-03-31T15:51:54;6.40;;;2.47;;
28007;SDS011;15333;50.010;20.020;2023-03-31T15:55:00;5.10;;;2.10;;
28007;SDS011;15333;50.010;20.020;2023-03-31T15:58:23;7.40;;;2.28;;
28007;SDS011;15333;50.010;20.020;2023-03-31T16:02:02;4.10;;;2.25;;
28007;SDS011;15333;50.010;20.020;2023-03-31T16:05:04;6.07;;;1.85;;
28007;SDS011;15333;50.010;20.020;2023-03-31T16:09:07;6.30;;;2.03;;
28007;SDS011;15333;50.010;20.020;2023-03-31T16:11:44;9.55;;;2.50;;
28007;SDS011;15333;50.010;20.020;2023-03-31T16:14:50;4.68;;;2.38;;
28007;SDS011;15333;50.010;20.020;2023-03-31T16:17:59;6.18;;;2.85;;
28007;SDS011;15333;50.010;20.020;2023-03-31T16:21:04;6.18;;;3.10;;
28007;SDS011;15333;50.010;20.020;2023-03-31T16:24:08;4.88;;;2.85;;
28007;SDS011;15333;50.010;20.020;2023-03-31T16:27:09;6.70;;;3.17;;
28007;SDS011;15333;50.010;20.020;2023-03-31T16:30:13;9.32;;;4.45;;
28007;SDS011;15333;50.010;20.020;2023-03-31T16:33:20;15.55;;;5.75;;
28007;SDS011;15333;50.010;20.020;2023-03-31T16:36:25;12.63;;;6.90;;
28007;SDS011;15333;50.010;20.020;2023-03-31T16:39:26;19.80;;;8.02;;
28007;SDS011;15333;50.010;20.020;2023-03-31T16:42:27;20.85;;;7.80;;
28007;SDS011;15333;50.010;20.020;2023-03-31T16:45:28;20.25;;;9.48;;
28007;SDS011;15333;50.010;20.020;2023-03-31T16:48:29;20.23;;;9.02;;
28007;SDS011;15333;50.010;20.020;2023-03-31T16:51:33;15.15;;;7.82;;
28007;SDS011;15333;50.010;20.020;2023-03-31T16:54:34;16.02;;;8.10;;
28007;SDS011;15333;50.010;20.020;2023-03-31T16:57:35;15.43;;;9.13;;
28007;SDS011;15333;50.010;20.020;2023-03-31T17:00:36;17.25;;;7.80;;
28007;SDS011;15333;50.010;20.020;2023-03-31T17:03:39;17.55;;;7.95;;
28007;SDS011;15333;50.010;20.020;2023-03-31T17:06:41;15.38;;;8.02;;
28007;SDS011;15333;50.010;20.020;2023-03-31T17:09:41;18.38;;;8.63;;
28007;SDS011;15333;50.010;20.020;2023-03-31T17:12:42;18.88;;;8.20;;
28007;SDS011;15333;50.010;20.020;2023-03-31T17:15:43;16.80;;;7.80;;
28007;SDS011;15333;50.010;20.020;2023-03-31T17:18:44;17.38;;;8.43;;
28007;SDS011;15333;50.010;20.020;2023-03-31T17:21:45;18.00;;;7.88;;
28007;SDS011;15333;50.010;20.020;2023-03-31T17:24:46;18.17;;;8.82;;
28007;SDS011;15333;50.010;20.020;2023-03-31T17:27:49;19.58;;;9.43;;
28007;SDS011;15333;50.010;20.020;2023-03-31T17:30:50;14.05;;;8.10;;
28007;SDS011;15333;50.010;20.020;2023-03-31T17:33:51;17.27;;;8.25;;
28007;SDS011;15333;50.010;20.020;2023-03-31T17:36:52;15.75;;;9.02;;
28007;SDS011;15333;50.010;20.020;2023-03-31T17:39:54;17.17;;;8.93;;
28007;SDS011;15333;50.010;20.020;2023-03-31T17:42:56;16.42;;;9.43;;
28007;SDS011;15333;50.010;20.020;2023-03-31T17:46:00;21.02;;;10.80;;
28007;SDS011;15333;50.010;20.020;2023-03-31T17:49:03;19.10;;;10.63;;
28007;SDS011;15333;50.010;20.020;2023-03-31T17:52:04;20.73;;;10.75;;
28007;SDS011;15333;50.010;20.020;2023-03-31T17:55:05;21.60;;;10.68;;
28007;SDS011;15333;50.010;20.020;2023-03-31T17:58:06;24.98;;;10.93;;
28007;SDS011;15333;50.010;20.020;2023-03-31T18:01:09;24.23;;;11.52;;
28007;SDS011;15333;50.010;20.020;2023-03-31T18:04:12;27.23;;;13.15;;
28007;SDS011;15333;50.010;20.020;2023-03-31T18:07:14;20.13;;;11.10;;
28007;SDS011;15333;50.010;20.020;2023-03-31T18:10:17;21.35;;;10.80;;
28007;SDS011;15333;50.010;20.020;2023-03-31T18:13:19;25.08;;;12.65;;
28007;SDS011;15333;50.010;20.020;2023-03-31T18:16:21;30.38;;;12.95;;
28007;SDS011;15333;50.010;20.020;2023-03-31T18:19:22;28.33;;;12.35;;
28007;SDS011;15333;50.010;20.020;2023-03-31T18:22:23;25.67;;;11.77;;
28007;SDS011;15333;50.010;20.020;2023-03-31T18:25:25;24.65;;;12.00;;
28007;SDS011;15333;50.010;20.020;2023-03-31T18:28:26;24.23;;;12.05;;
28007;SDS011;15333;50.010;20.020;2023-03-31T18:31:27;24.08;;;11.80;;
28007;SDS011;15333;50.010;20.020;2023-03-31T18:34:29;21.80;;;11.25;;
28007;SDS011;15333;50.010;20.020;2023-03-31T18:37:30;20.90;;;10.02;;
28007;SDS011;15333;50.010;20.020;2023-03-31T18:40:31;22.00;;;11.02;;
28007;SDS011;15333;50.010;20.020;2023-03-31T18:43:32;19.45;;;9.77;;
28007;SDS011;15333;50.010;20.020;2023-03-31T18:46:33;19.38;;;9.88;;
28007;SDS011;15333;50.010;20.020;2023-03-31T18:49:34;23.63;;;10.80;;
28007;SDS011;15333;50.010;20.020;2023-03-31T18:52:35;19.10;;;10.05;;
28007;SDS011;15333;50.010;20.020;2023-03-31T18:55:36;18.67;;;9.85;;
28007;SDS011;15333;50.010;20.020;2023-03-31T18:58:38;14.63;;;8.43;;
28007;SDS011;15333;50.010;20.020;2023-03-31T19:01:39;17.45;;;8.65;;
28007;SDS011;15333;50.010;20.020;2023-03-31T19:04:41;12.90;;;7.15;;
28007;SDS011;15333;50.010;20.020;2023-03-31T19:07:42;14.35;;;7.30;;
28007;SDS011;15333;50.010;20.020;2023-03-31T19:10:43;19.58;;;7.47;;
28007;SDS011;15333;50.010;20.020;2023-03-31T19:13:44;17.20;;;7.45;;
28007;SDS011;15333;50.010;20.020;2023-03-31T19:16:45;16.85;;;7.65;;
28007;SDS011;15333;50.010;20.020;2023-03-31T19:19:46;16.08;;;7.40;;
28007;SDS011;15333;50.010;20.020;2023-03-31T19:22:48;17.38;;;8.55;;
28007;SDS011;15333;50.010;20.020;2023-03-31T19:25:53;12.98;;;8.05;;
28007;SDS011;15333;50.010;20.020;2023-03-31T19:28:56;16.60;;;8.00;;
28007;SDS011;15333;50.010;20.020;2023-03-31T19:31:58;16.25;;;8.65;;
28007;SDS011;15333;50.010;20.020;2023-03-31T19:34:59;16.88;;;8.70;;
28007;SDS011;15333;50.010;20.020;2023-03-31T19:38:00;14.80;;;8.25;;
28007;SDS011;15333;50.010;20.020;2023-03-31T19:41:02;17.83;;;8.27;;
28007;SDS011;15333;50.010;20.020;2023-03-31T19:44:07;17.45;;;8.65;;
28007;SDS011;15333;50.010;20.020;2023-03-31T19:47:08;17.23;;;8.13;;
28007;SDS011;15333;50.010;20.020;2023-03-31T19:50:09;15.80;;;8.45;;
28007;SDS011;15333;50.010;20.020;2023-03-31T19:53:10;14.70;;;8.55;;
28007;SDS011;15333;50.010;20.020;2023-03-31T19:56:12;17.02;;;9.82;;
28007;SDS011;15333;50.010;20.020;2023-03-31T19:59:15;19.10;;;8.85;;
28007;SDS011;15333;50.010;20.020;2023-03-31T20:02:16;16.20;;;7.93;;
28007;SDS011;15333;50.010;20.020;2023-03-31T20:05:17;13.70;;;7.25;;
28007;SDS011;15333;50.010;20.020;2023-03-31T20:08:19;13.70;;;6.82;;
28007;SDS011;15333;50.010;20.020;2023-03-31T20:11:20;17.58;;;7.70;;
28007;SDS011;15333;50.010;20.020;2023-03-31T20:14:21;13.10;;;7.03;;
28007;SDS011;15333;50.010;20.020;2023-03-31T20:17:22;13.63;;;7.03;;
28007;SDS011;15333;50.010;20.020;2023-03-31T20:20:23;14.30;;;7.45;;
28007;SDS011;15333;50.010;20.020;2023-03-31T20:23:25;17.80;;;7.95;;
28007;SDS011;15333;50.010;20.020;2023-03-31T20:26:28;20.83;;;8.20;;
28007;SDS011;15333;50.010;20.020;2023-03-31T20:29:30;14.65;;;7.78;;
28007;SDS011;15333;50.010;20.020;2023-03-31T20:32:31;15.93;;;7.80;;
28007;SDS011;15333;50.010;20.020;2023-03-31T20:35:32;17.08;;;8.35;;
28007;SDS011;15333;50.010;20.020;2023-03-31T20:38:37;18.13;;;8.70;;
28007;SDS011;15333;50.010;20.020;2023-03-31T20:41:39;14.45;;;7.70;;
28007;SDS011;15333;50.010;20.020;2023-03-31T20:44:40;16.02;;;7.68;;
28007;SDS011;15333;50.010;20.020;2023-03-31T20:47:42;15.68;;;7.47;;
28007;SDS011;15333;50.010;20.020;2023-03-31T20:50:43;15.43;;;7.68;;